createdAt,value
2022-08-07T00:00:40.110Z,93.93
2022-08-07T00:03:08.607Z,94.32
2022-08-07T00:05:37.142Z,93.14
2022-08-07T00:08:05.504Z,93.59
2022-08-07T00:10:35.500Z,93.39
2022-08-07T00:13:17.454Z,93.41
2022-08-07T00:15:53.423Z,93.53
2022-08-07T00:18:24.479Z,94.09
2022-08-07T00:20:52.897Z,94.19
2022-08-07T00:23:21.127Z,94.80
2022-08-07T00:25:52.125Z,94.92
2022-08-07T00:28:33.309Z,95.29
2022-08-07T00:31:06.187Z,95.42
2022-08-07T00:33:34.147Z,95.87
2022-08-07T00:36:01.672Z,95.67
2022-08-07T00:38:31.186Z,95.22
2022-08-07T00:40:59.194Z,95.21
2022-08-07T00:44:00.667Z,95.06
2022-08-07T00:46:14.699Z,95.72
2022-08-07T00:48:42.269Z,94.92
2022-08-07T00:51:10.537Z,95.05
2022-08-07T00:53:39.387Z,94.97
2022-08-07T00:56:18.103Z,94.38
2022-08-07T00:58:47.469Z,94.16
2022-08-07T01:01:20.492Z,93.30
2022-08-07T01:03:56.180Z,92.32
2022-08-07T01:06:27.144Z,91.81
2022-08-07T01:08:55.633Z,91.74
2022-08-07T01:12:05.048Z,91.87
2022-08-07T01:14:10.431Z,91.76
2022-08-07T01:16:43.211Z,92.47
2022-08-07T01:19:19.131Z,92.22
2022-08-07T01:21:53.454Z,92.75
2022-08-07T01:24:27.736Z,93.52
2022-08-07T01:26:59.084Z,93.38
2022-08-07T01:29:31.509Z,92.92
2022-08-07T01:32:05.228Z,93.36
2022-08-07T01:34:33.330Z,94.25
2022-08-07T01:37:09.755Z,94.57
2022-08-07T01:39:46.727Z,94.72
2022-08-07T01:42:38.517Z,95.01
2022-08-07T01:45:22.913Z,95.83
2022-08-07T01:48:18.623Z,96.20
2022-08-07T01:50:49.819Z,96.25
2022-08-07T01:53:21.937Z,96.58
2022-08-07T01:56:13.210Z,97.05
2022-08-07T01:58:46.512Z,97.26
2022-08-07T02:01:25.512Z,97.21
2022-08-07T02:04:11.567Z,97.26
2022-08-07T02:06:43.219Z,98.04
2022-08-07T02:09:33.769Z,97.13
2022-08-07T02:12:18.220Z,97.20
2022-08-07T02:14:54.010Z,97.65
2022-08-07T02:17:39.558Z,97.84
2022-08-07T02:20:17.513Z,96.97
2022-08-07T02:22:55.045Z,97.35
2022-08-07T02:26:10.906Z,97.41
2022-08-07T02:28:24.388Z,97.56
2022-08-07T02:30:53.792Z,97.28
2022-08-07T02:33:23.448Z,97.57
2022-08-07T02:36:29.578Z,97.70
2022-08-07T02:38:56.762Z,97.12
2022-08-07T02:41:37.101Z,97.53
2022-08-07T02:44:07.239Z,97.77
2022-08-07T02:46:36.953Z,97.69
2022-08-07T02:49:56.108Z,97.84
2022-08-07T02:52:04.957Z,98.18
2022-08-07T02:54:35.513Z,97.84
2022-08-07T02:57:06.612Z,97.68
2022-08-07T02:59:34.755Z,98.11
2022-08-07T03:02:07.379Z,97.96
2022-08-07T03:04:37.110Z,98.17
2022-08-07T03:07:10.474Z,97.56
2022-08-07T03:09:44.397Z,97.36
2022-08-07T03:12:22.663Z,97.04
2022-08-07T03:15:07.733Z,97.54
2022-08-07T03:17:52.855Z,97.12
2022-08-07T03:20:22.405Z,97.36
2022-08-07T03:22:50.917Z,97.21
2022-08-07T03:25:21.128Z,97.63
2022-08-07T03:28:08.816Z,97.50
2022-08-07T03:30:38.483Z,97.76
2022-08-07T03:33:08.657Z,97.92
2022-08-07T03:35:50.098Z,98.14
2022-08-07T03:38:20.906Z,98.59
2022-08-07T03:40:57.265Z,98.48
2022-08-07T03:43:32.211Z,98.71
2022-08-07T03:46:03.411Z,98.65
2022-08-07T03:48:32.571Z,99.10
2022-08-07T03:51:00.768Z,98.96
2022-08-07T03:54:33.014Z,99.10
2022-08-07T03:56:33.276Z,99.25
2022-08-07T03:59:10.157Z,99.54
2022-08-07T04:01:45.738Z,98.99
2022-08-07T04:04:17.757Z,99.25
2022-08-07T04:06:50.808Z,99.50
2022-08-07T04:09:23.319Z,98.82
2022-08-07T04:12:24.147Z,98.51
2022-08-07T04:14:46.212Z,99.09
2022-08-07T04:17:21.552Z,98.87
2022-08-07T04:19:54.860Z,99.06
2022-08-07T04:22:27.478Z,98.93
2022-08-07T04:24:58.357Z,99.16
2022-08-07T04:27:26.515Z,99.03
2022-08-07T04:30:02.661Z,99.22
2022-08-07T04:32:58.242Z,99.29
2022-08-07T04:35:28.588Z,98.82
2022-08-07T04:38:07.098Z,99.06
2022-08-07T04:40:43.931Z,97.61
2022-08-07T04:44:10.408Z,97.95
2022-08-07T04:46:29.360Z,98.02
2022-08-07T04:49:24.566Z,97.23
2022-08-07T04:52:00.768Z,97.63
2022-08-07T04:54:32.314Z,97.08
2022-08-07T04:58:14.423Z,96.94
2022-08-07T05:00:10.746Z,96.76
2022-08-07T05:02:48.641Z,97.07
2022-08-07T05:05:52.834Z,96.86
2022-08-07T05:08:18.033Z,97.01
2022-08-07T05:11:11.093Z,97.16
2022-08-07T05:14:53.261Z,97.26
2022-08-07T05:16:44.088Z,97.33
2022-08-07T05:19:19.567Z,96.75
2022-08-07T05:22:04.734Z,96.90
2022-08-07T05:24:39.573Z,95.96
2022-08-07T05:28:02.058Z,95.25
2022-08-07T05:29:59.748Z,95.42
2022-08-07T05:32:27.420Z,95.70
2022-08-07T05:34:56.804Z,96.00
2022-08-07T05:37:25.767Z,94.88
2022-08-07T05:40:13.449Z,95.09
2022-08-07T05:42:55.822Z,94.46
2022-08-07T05:45:47.087Z,93.90
2022-08-07T05:48:14.297Z,92.88
2022-08-07T05:50:47.827Z,92.30
2022-08-07T05:54:12.817Z,91.16
2022-08-07T05:56:08.664Z,90.73
2022-08-07T05:58:52.446Z,91.18
2022-08-07T06:01:24.874Z,91.37
2022-08-07T06:03:59.009Z,91.75
2022-08-07T06:06:34.740Z,91.57
2022-08-07T06:09:05.377Z,91.49
2022-08-07T06:11:37.635Z,91.17
2022-08-07T06:14:13.336Z,90.87
2022-08-07T06:16:56.147Z,90.59
2022-08-07T06:19:52.299Z,89.33
2022-08-07T06:22:27.393Z,88.88
2022-08-07T06:25:10.636Z,88.41
2022-08-07T06:27:44.215Z,88.25
2022-08-07T06:30:35.346Z,87.86
2022-08-07T06:33:15.650Z,86.70
2022-08-07T06:35:47.917Z,86.78
2022-08-07T06:38:32.600Z,86.58
2022-08-07T06:41:06.891Z,85.06
2022-08-07T06:43:39.596Z,84.32
2022-08-07T06:46:12.656Z,83.91
2022-08-07T06:48:42.031Z,83.67
2022-08-07T06:51:31.114Z,82.48
2022-08-07T06:55:29.149Z,80.51
2022-08-07T06:56:55.511Z,79.42
2022-08-07T07:00:14.842Z,76.21
2022-08-07T07:02:48.838Z,75.50
2022-08-07T07:05:12.953Z,72.34
2022-08-07T07:07:59.472Z,72.90
2022-08-07T07:10:36.204Z,71.84
2022-08-07T07:13:13.226Z,70.94
2022-08-07T07:15:44.671Z,70.02
2022-08-07T07:18:47.382Z,70.18
2022-08-07T07:21:19.511Z,70.51
2022-08-07T07:24:09.033Z,69.07
2022-08-07T07:26:39.683Z,67.98
2022-08-07T07:29:55.815Z,67.35
2022-08-07T07:32:03.535Z,65.97
2022-08-07T07:34:33.248Z,65.54
2022-08-07T07:37:05.511Z,67.44
2022-08-07T07:39:54.845Z,66.79
2022-08-07T07:42:33.079Z,66.04
2022-08-07T07:45:02.577Z,64.92
2022-08-07T07:47:42.924Z,66.10
2022-08-07T07:50:35.167Z,63.48
2022-08-07T07:53:05.910Z,63.00
2022-08-07T07:55:54.728Z,62.40
2022-08-07T07:58:29.552Z,61.18
2022-08-07T08:00:58.380Z,57.24
2022-08-07T08:04:10.100Z,54.46
2022-08-07T08:06:17.491Z,51.87
2022-08-07T08:08:46.310Z,47.55
2022-08-07T08:11:17.907Z,46.77
2022-08-07T08:14:04.398Z,44.53
2022-08-07T08:16:35.523Z,44.26
2022-08-07T08:19:17.934Z,44.92
2022-08-07T08:22:11.426Z,41.30
2022-08-07T08:25:18.220Z,40.64
2022-08-07T08:27:57.082Z,40.42
2022-08-07T08:30:34.878Z,40.40
2022-08-07T08:33:10.622Z,41.13
2022-08-07T08:35:49.780Z,43.71
2022-08-07T08:38:20.550Z,41.89
2022-08-07T08:40:57.088Z,40.20
2022-08-07T08:43:42.260Z,41.01
2022-08-07T08:46:25.295Z,41.05
2022-08-07T08:48:59.713Z,39.92
2022-08-07T08:51:49.531Z,42.05
2022-08-07T08:54:24.580Z,40.69
2022-08-07T08:56:54.144Z,41.14
2022-08-07T08:59:29.486Z,37.38
2022-08-07T09:02:08.766Z,36.92
2022-08-07T09:04:44.820Z,40.08
2022-08-07T09:07:23.072Z,39.65
2022-08-07T09:09:58.836Z,39.93
2022-08-07T09:12:53.061Z,39.82
2022-08-07T09:16:21.490Z,36.37
2022-08-07T09:19:03.482Z,34.63
2022-08-07T09:22:09.747Z,36.54
2022-08-07T09:24:59.058Z,33.80
2022-08-07T09:28:00.394Z,34.98
2022-08-07T09:30:48.853Z,36.00
2022-08-07T09:33:52.350Z,37.67
2022-08-07T09:36:31.174Z,35.25
2022-08-07T09:39:52.596Z,35.89
2022-08-07T09:42:11.912Z,32.68
2022-08-07T09:47:55.116Z,34.89
2022-08-07T09:48:00.233Z,35.86
2022-08-07T09:50:40.017Z,34.49
2022-08-07T09:53:12.655Z,34.93
2022-08-07T09:56:03.106Z,32.97
2022-08-07T09:58:55.428Z,37.03
2022-08-07T10:01:50.488Z,33.93
2022-08-07T10:04:33.083Z,33.96
2022-08-07T10:07:25.545Z,33.72
2022-08-07T10:10:03.916Z,31.49
2022-08-07T10:12:53.231Z,35.06
2022-08-07T10:15:44.017Z,32.81
2022-08-07T10:18:35.394Z,31.69
2022-08-07T10:22:12.418Z,32.30
2022-08-07T10:24:25.864Z,31.22
2022-08-07T10:27:19.585Z,36.09
2022-08-07T10:30:04.921Z,38.71
2022-08-07T10:32:53.261Z,36.50
2022-08-07T10:35:55.229Z,34.92
2022-08-07T10:38:36.169Z,34.11
2022-08-07T10:41:51.609Z,34.69
2022-08-07T10:44:16.863Z,36.40
2022-08-07T10:47:14.141Z,31.28
2022-08-07T10:49:50.752Z,30.16
2022-08-07T10:52:31.837Z,30.64
2022-08-07T10:55:32.500Z,29.98
2022-08-07T10:58:04.390Z,31.86
2022-08-07T11:00:50.591Z,33.00
2022-08-07T11:03:37.861Z,34.19
2022-08-07T11:06:26.708Z,35.11
2022-08-07T11:09:00.266Z,36.91
2022-08-07T11:11:35.907Z,39.97
2022-08-07T11:14:44.339Z,39.71
2022-08-07T11:17:01.993Z,46.56
2022-08-07T11:19:38.094Z,45.08
2022-08-07T11:22:19.181Z,48.99
2022-08-07T11:25:06.646Z,50.10
2022-08-07T11:28:02.366Z,53.80
2022-08-07T11:30:42.291Z,53.87
2022-08-07T11:33:16.877Z,51.69
2022-08-07T11:35:59.186Z,52.70
2022-08-07T11:38:30.663Z,51.21
2022-08-07T11:41:04.036Z,47.26
2022-08-07T11:43:54.705Z,43.43
2022-08-07T11:46:36.630Z,41.32
2022-08-07T11:49:50.390Z,47.18
2022-08-07T11:52:39.188Z,50.16
2022-08-07T11:55:18.965Z,52.11
2022-08-07T11:58:16.454Z,52.11
2022-08-07T12:01:02.279Z,51.29
2022-08-07T12:04:02.406Z,46.08
2022-08-07T12:06:50.760Z,49.37
2022-08-07T12:09:28.678Z,46.91
2022-08-07T12:12:09.484Z,48.18
2022-08-07T12:14:56.471Z,49.35
2022-08-07T12:17:37.420Z,47.77
2022-08-07T12:20:18.465Z,47.76
2022-08-07T12:23:10.738Z,46.57
2022-08-07T12:26:21.524Z,49.73
2022-08-07T12:28:49.747Z,49.51
2022-08-07T12:31:53.259Z,50.57
2022-08-07T12:34:18.487Z,46.40
2022-08-07T12:36:50.027Z,46.04
2022-08-07T12:39:44.108Z,48.95
2022-08-07T12:42:13.194Z,49.02
2022-08-07T12:44:45.239Z,49.84
2022-08-07T12:47:30.740Z,49.02
2022-08-07T12:50:34.490Z,50.57
2022-08-07T12:53:05.317Z,54.33
2022-08-07T12:56:03.326Z,52.98
2022-08-07T12:58:39.454Z,51.53
2022-08-07T13:01:16.996Z,51.10
2022-08-07T13:04:05.328Z,49.02
2022-08-07T13:06:54.220Z,46.40
2022-08-07T13:10:18.752Z,47.37
2022-08-07T13:12:37.801Z,47.21
2022-08-07T13:15:23.509Z,47.08
2022-08-07T13:18:03.588Z,48.23
2022-08-07T13:20:40.220Z,50.67
2022-08-07T13:24:00.737Z,52.78
2022-08-07T13:26:05.543Z,48.92
2022-08-07T13:28:39.471Z,48.38
2022-08-07T13:31:13.122Z,46.04
2022-08-07T13:34:32.696Z,43.82
2022-08-07T13:36:42.265Z,45.18
2022-08-07T13:39:48.932Z,46.82
2022-08-07T13:42:10.170Z,45.85
2022-08-07T13:44:39.745Z,46.13
2022-08-07T13:47:15.770Z,45.42
2022-08-07T13:50:34.994Z,42.14
2022-08-07T13:52:47.040Z,41.69
2022-08-07T13:55:19.538Z,42.70
2022-08-07T13:58:27.999Z,38.00
2022-08-07T14:01:09.113Z,39.13
2022-08-07T14:04:07.887Z,37.96
2022-08-07T14:06:33.028Z,38.30
2022-08-07T14:09:04.479Z,38.88
2022-08-07T14:11:53.733Z,38.53
2022-08-07T14:14:28.471Z,39.05
2022-08-07T14:17:00.097Z,37.98
2022-08-07T14:20:39.756Z,41.10
2022-08-07T14:22:41.589Z,43.89
2022-08-07T14:25:13.550Z,44.98
2022-08-07T14:28:11.544Z,46.14
2022-08-07T14:30:34.048Z,42.77
2022-08-07T14:33:04.466Z,40.88
2022-08-07T14:35:45.514Z,41.60
2022-08-07T14:38:26.523Z,44.53
2022-08-07T14:41:03.863Z,46.94
2022-08-07T14:43:58.072Z,44.03
2022-08-07T14:46:30.709Z,47.63
2022-08-07T14:57:55.151Z,42.44
2022-08-07T15:03:16.710Z,40.82
2022-08-07T15:05:54.778Z,38.96
2022-08-07T15:08:50.370Z,38.95
2022-08-07T15:11:53.618Z,39.72
2022-08-07T15:14:19.614Z,40.93
2022-08-07T15:16:54.927Z,39.65
2022-08-07T15:20:32.430Z,38.98
2022-08-07T15:22:33.541Z,40.16
2022-08-07T15:25:17.063Z,39.72
2022-08-07T15:28:32.399Z,39.29
2022-08-07T15:37:03.852Z,38.68
2022-08-07T15:39:16.825Z,36.22
2022-08-07T15:42:46.156Z,36.68
2022-08-07T15:48:01.351Z,37.41
2022-08-07T15:50:37.935Z,40.72
2022-08-07T15:53:21.763Z,40.60
2022-08-07T15:56:02.772Z,38.08
2022-08-07T15:58:39.278Z,37.16
2022-08-07T16:01:15.344Z,38.22
2022-08-07T16:03:54.394Z,41.90
2022-08-07T16:06:29.868Z,44.64
2022-08-07T16:09:01.301Z,46.72
2022-08-07T16:11:43.300Z,49.22
2022-08-07T16:14:19.192Z,51.31
2022-08-07T16:17:00.479Z,52.89
2022-08-07T16:19:58.876Z,55.70
2022-08-07T16:22:55.328Z,55.57
2022-08-07T16:25:55.425Z,54.56
2022-08-07T16:30:05.889Z,53.61
2022-08-07T16:31:58.625Z,53.37
2022-08-07T16:34:38.473Z,54.41
2022-08-07T16:38:04.365Z,55.21
2022-08-07T16:40:34.257Z,56.01
2022-08-07T16:43:12.180Z,57.17
2022-08-07T16:46:33.410Z,57.80
2022-08-07T16:50:27.449Z,58.18
2022-08-07T16:52:51.052Z,58.49
2022-08-07T16:55:17.267Z,57.28
2022-08-07T16:58:01.929Z,55.81
2022-08-07T17:00:40.333Z,56.90
2022-08-07T17:03:17.142Z,57.09
2022-08-07T17:06:19.758Z,57.11
2022-08-07T17:09:13.956Z,57.51
2022-08-07T17:12:05.229Z,57.43
2022-08-07T17:14:43.771Z,56.68
2022-08-07T17:17:28.127Z,57.04
2022-08-07T17:20:21.671Z,57.77
2022-08-07T17:23:03.830Z,57.48
2022-08-07T17:25:48.023Z,58.34
2022-08-07T17:28:31.130Z,58.17
2022-08-07T17:31:15.952Z,58.20
2022-08-07T17:34:18.212Z,59.70
2022-08-07T17:36:57.964Z,60.85
2022-08-07T17:39:58.813Z,62.02
2022-08-07T17:42:58.303Z,62.58
2022-08-07T17:45:30.770Z,64.78
2022-08-07T17:48:06.819Z,65.73
2022-08-07T17:50:49.926Z,65.65
2022-08-07T17:54:01.583Z,65.58
2022-08-07T17:56:29.372Z,65.24
2022-08-07T17:59:09.593Z,63.96
2022-08-07T18:01:45.790Z,63.51
2022-08-07T18:04:30.745Z,63.22
2022-08-07T18:07:20.831Z,62.16
2022-08-07T18:10:05.970Z,63.14
2022-08-07T18:12:48.194Z,63.06
2022-08-07T18:15:20.175Z,62.92
2022-08-07T18:18:39.896Z,62.18
2022-08-07T18:21:11.870Z,62.17
2022-08-07T18:23:50.888Z,61.90
2022-08-07T18:26:27.880Z,63.38
2022-08-07T18:30:04.383Z,64.63
2022-08-07T18:32:08.855Z,64.37
2022-08-07T18:35:02.618Z,64.62
2022-08-07T18:38:55.880Z,64.92
2022-08-07T18:40:42.748Z,65.99
2022-08-07T18:43:42.682Z,65.39
2022-08-07T18:46:25.422Z,64.86
2022-08-07T18:50:35.236Z,65.25
2022-08-07T18:52:35.451Z,65.19
2022-08-07T18:54:51.720Z,65.93
2022-08-07T18:57:31.459Z,65.96
2022-08-07T19:00:32.864Z,66.21
2022-08-07T19:03:11.668Z,67.08
2022-08-07T19:06:02.635Z,67.96
2022-08-07T19:08:46.252Z,69.22
2022-08-07T19:11:35.903Z,69.30
2022-08-07T19:14:19.981Z,70.62
2022-08-07T19:17:06.661Z,69.90
2022-08-07T19:19:53.528Z,70.37
2022-08-07T19:22:30.830Z,70.96
2022-08-07T19:24:58.844Z,71.14
2022-08-07T19:28:29.622Z,72.00
2022-08-07T19:31:00.909Z,72.52
2022-08-07T19:33:16.053Z,73.31
2022-08-07T19:35:51.736Z,73.71
2022-08-07T19:38:20.618Z,74.69
2022-08-07T19:40:51.421Z,74.79
2022-08-07T19:43:43.969Z,74.93
2022-08-07T19:46:10.705Z,75.50
2022-08-07T19:48:42.696Z,76.44
2022-08-07T19:51:19.569Z,76.66
2022-08-07T19:54:31.148Z,77.28
2022-08-07T19:58:02.350Z,78.57
2022-08-07T19:59:40.801Z,79.52
2022-08-07T20:02:19.276Z,80.23
2022-08-07T20:04:50.162Z,80.41
2022-08-07T20:07:28.263Z,81.34
2022-08-07T20:10:36.677Z,81.47
2022-08-07T20:13:06.018Z,81.78
2022-08-07T20:15:37.280Z,82.00
2022-08-07T20:18:14.668Z,82.31
2022-08-07T20:20:47.167Z,82.11
2022-08-07T20:23:32.949Z,82.17
2022-08-07T20:26:09.995Z,82.20
2022-08-07T20:28:39.975Z,82.45
2022-08-07T20:31:21.340Z,82.25
2022-08-07T20:33:56.593Z,82.69
2022-08-07T20:36:27.231Z,82.67
2022-08-07T20:39:00.534Z,83.51
2022-08-07T20:41:38.326Z,82.92
2022-08-07T20:44:12.521Z,83.29
2022-08-07T20:46:44.223Z,83.90
2022-08-07T20:49:57.994Z,84.46
2022-08-07T20:52:00.656Z,84.54
2022-08-07T20:54:29.983Z,85.05
2022-08-07T20:57:03.748Z,85.56
2022-08-07T21:00:06.669Z,86.23
2022-08-07T21:03:03.328Z,86.06
2022-08-07T21:05:54.463Z,86.20
2022-08-07T21:08:36.363Z,86.67
2022-08-07T21:11:10.852Z,86.69
2022-08-07T21:14:16.250Z,87.58
2022-08-07T21:16:36.250Z,88.11
2022-08-07T21:19:09.085Z,88.22
2022-08-07T21:21:56.835Z,88.20
2022-08-07T21:24:32.561Z,88.73
2022-08-07T21:27:14.659Z,89.36
2022-08-07T21:29:52.796Z,89.28
2022-08-07T21:32:44.163Z,89.49
2022-08-07T21:35:34.633Z,89.94
2022-08-07T21:38:12.631Z,89.63
2022-08-07T21:40:45.786Z,89.86
2022-08-07T21:43:22.938Z,90.37
2022-08-07T21:46:07.528Z,90.64
2022-08-07T21:48:55.782Z,90.78
2022-08-07T21:51:32.593Z,91.01
2022-08-07T21:54:13.204Z,91.27
2022-08-07T21:56:49.431Z,91.44
2022-08-07T22:00:02.967Z,91.89
2022-08-07T22:02:27.484Z,92.05
2022-08-07T22:05:00.259Z,91.68
2022-08-07T22:07:58.864Z,91.68
2022-08-07T22:10:22.214Z,91.51
2022-08-07T22:12:55.518Z,92.19
2022-08-07T22:16:39.825Z,91.90
2022-08-07T22:18:25.554Z,92.27
2022-08-07T22:20:58.003Z,92.50
2022-08-07T22:23:40.516Z,92.07
2022-08-07T22:26:17.565Z,92.37
2022-08-07T22:28:53.164Z,92.12
2022-08-07T22:31:56.306Z,91.95
2022-08-07T22:34:28.861Z,91.93
2022-08-07T22:37:09.337Z,91.90
2022-08-07T22:39:53.554Z,92.24
2022-08-07T22:42:26.013Z,92.60
2022-08-07T22:45:02.174Z,92.84
2022-08-07T22:48:01.527Z,92.75
2022-08-07T22:51:03.352Z,93.11
2022-08-07T22:54:07.080Z,92.87
2022-08-07T22:56:47.326Z,93.07
2022-08-07T22:59:38.170Z,92.72
2022-08-07T23:02:33.085Z,92.00
2022-08-07T23:08:04.851Z,92.63
2022-08-07T23:10:45.195Z,92.96
2022-08-07T23:13:49.229Z,93.32
2022-08-07T23:16:48.635Z,93.63
2022-08-07T23:20:00.022Z,93.84
2022-08-07T23:22:43.084Z,93.66
2022-08-07T23:25:28.495Z,94.53
2022-08-07T23:28:28.623Z,94.42
2022-08-07T23:31:18.553Z,94.50
2022-08-07T23:34:38.183Z,94.94
2022-08-07T23:37:32.206Z,95.04
2022-08-07T23:40:23.038Z,95.22
2022-08-07T23:43:17.020Z,93.92
2022-08-07T23:46:03.002Z,94.31
2022-08-07T23:48:48.079Z,94.30
2022-08-07T23:52:57.982Z,94.74
2022-08-07T23:54:19.932Z,94.69
2022-08-07T23:57:12.557Z,95.20
